Time;durP1;ratioP1;P1;durP2;ratioP2;P2;SDS_P1;SDS_P2;PMS_P1;PMS_P2;Temp;Humidity;BMP_temperature;BMP_pressure;BME280_temperature;BME280_humidity;BME280_pressure;Samples;Min_cycle;Max_cycle;Signal;HPM_P1;HPM_P2
2023/03/13 00:01:08;;;;;;;27.52;6.07;;;9.20;86.40;;;;;;5058417;28;20471;-83
2023/03/13 00:03:34;;;;;;;24.75;5.63;;;9.20;86.50;;;;;;5072245;28;20043;-79
2023/03/13 00:05:59;;;;;;;27.58;6.43;;;9.20;86.50;;;;;;5078539;28;20047;-83
2023/03/13 00:08:29;;;;;;;25.60;6.45;;;9.20;86.50;;;;;;5108435;28;20086;-83
2023/03/13 00:10:54;;;;;;;25.70;5.30;;;9.20;86.70;;;;;;5075478;28;20375;-83
2023/03/13 00:13:20;;;;;;;17.90;5.25;;;9.20;86.70;;;;;;5058585;28;20115;-83
2023/03/13 00:15:46;;;;;;;19.80;5.50;;;9.20;86.70;;;;;;5074909;28;20043;-83
2023/03/13 00:18:12;;;;;;;32.00;6.68;;;9.20;86.80;;;;;;5068862;28;20420;-83
2023/03/13 00:20:37;;;;;;;33.90;5.78;;;9.10;86.70;;;;;;5078553;28;20028;-83
2023/03/13 00:23:03;;;;;;;28.13;6.75;;;9.20;86.90;;;;;;5095564;28;20126;-82
2023/03/13 00:25:28;;;;;;;26.13;5.53;;;9.20;86.90;;;;;;5075212;28;20052;-83
2023/03/13 00:27:54;;;;;;;22.83;6.05;;;9.20;87.00;;;;;;5074980;28;20495;-82
2023/03/13 00:30:20;;;;;;;23.10;5.32;;;9.20;87.00;;;;;;5061593;28;20046;-83
2023/03/13 00:32:47;;;;;;;31.38;5.85;;;9.20;87.00;;;;;;5045154;28;20185;-82
2023/03/13 00:35:13;;;;;;;22.38;5.30;;;9.20;87.00;;;;;;5058466;28;20036;-82
2023/03/13 00:37:39;;;;;;;29.10;6.35;;;9.20;87.10;;;;;;5059274;28;20074;-83
2023/03/13 00:40:06;;;;;;;28.67;6.50;;;9.20;87.00;;;;;;5095161;28;20486;-81
2023/03/13 00:42:33;;;;;;;22.60;5.43;;;9.20;87.10;;;;;;5082475;28;20117;-80
2023/03/13 00:44:58;;;;;;;26.95;5.88;;;9.20;87.20;;;;;;5065355;28;20491;-82
2023/03/13 00:47:24;;;;;;;23.35;5.80;;;9.20;87.20;;;;;;5049047;28;20039;-82
2023/03/13 00:49:50;;;;;;;22.23;5.15;;;9.20;87.30;;;;;;5048798;28;20035;-83
2023/03/13 00:52:15;;;;;;;29.00;6.57;;;9.20;87.30;;;;;;5081881;28;20067;-83
2023/03/13 00:54:42;;;;;;;21.05;5.22;;;9.20;87.40;;;;;;5061956;28;20529;-81
2023/03/13 00:57:08;;;;;;;30.77;6.15;;;9.20;87.40;;;;;;5064469;27;20040;-81
2023/03/13 00:59:34;;;;;;;20.20;5.10;;;9.20;87.50;;;;;;5099222;28;20088;-81
2023/03/13 01:02:00;;;;;;;24.30;4.72;;;9.20;87.50;;;;;;5098768;28;20039;-81
2023/03/13 01:04:25;;;;;;;20.83;6.47;;;9.20;87.60;;;;;;5081868;28;20043;-81
2023/03/13 01:06:51;;;;;;;27.42;6.32;;;9.20;87.60;;;;;;5098419;28;20036;-81
2023/03/13 01:09:18;;;;;;;23.98;5.78;;;9.20;87.70;;;;;;5073346;28;20097;-81
2023/03/13 01:11:45;;;;;;;25.77;6.30;;;9.20;87.80;;;;;;5061878;28;20094;-81
2023/03/13 01:14:14;;;;;;;26.80;6.20;;;9.20;87.80;;;;;;5070235;28;20506;-81
2023/03/13 01:16:41;;;;;;;21.42;4.78;;;9.20;87.90;;;;;;5081699;28;20036;-82
2023/03/13 01:19:12;;;;;;;23.35;4.85;;;9.20;88.00;;;;;;5098412;28;20054;-82
2023/03/13 01:21:39;;;;;;;21.77;5.40;;;9.20;88.10;;;;;;5081530;28;20123;-82
2023/03/13 01:24:05;;;;;;;25.55;5.65;;;9.20;88.10;;;;;;5081649;28;20506;-82
2023/03/13 01:26:31;;;;;;;17.67;5.03;;;9.20;88.10;;;;;;5098028;28;20138;-82
2023/03/13 01:28:57;;;;;;;23.88;5.45;;;9.20;88.20;;;;;;5081245;28;20078;-81
2023/03/13 01:31:32;;;;;;;34.00;6.93;;;9.20;88.30;;;;;;5081399;28;20071;-81
2023/03/13 01:33:59;;;;;;;28.60;6.00;;;9.30;88.40;;;;;;5081125;28;20040;-81
2023/03/13 01:36:26;;;;;;;26.63;5.47;;;9.20;88.30;;;;;;5081111;28;20040;-82
2023/03/13 01:38:54;;;;;;;19.70;4.93;;;9.20;88.30;;;;;;5097192;27;20043;-82
2023/03/13 01:41:22;;;;;;;19.35;5.70;;;9.30;88.40;;;;;;5081227;28;20070;-81
2023/03/13 01:43:48;;;;;;;27.70;5.45;;;9.30;88.40;;;;;;5081108;28;20126;-82
2023/03/13 01:46:17;;;;;;;24.38;5.78;;;9.30;88.40;;;;;;5081193;28;20039;-81
2023/03/13 01:49:01;;;;;;;28.38;6.60;;;9.30;88.40;;;;;;5063972;28;20040;-83
2023/03/13 01:51:39;;;;;;;22.95;5.57;;;9.30;88.40;;;;;;5077771;28;20043;-82
2023/03/13 01:54:05;;;;;;;22.73;5.35;;;9.30;88.40;;;;;;5094135;27;20032;-83
2023/03/13 01:56:39;;;;;;;23.30;4.97;;;9.30;88.40;;;;;;5092669;28;20050;-82
2023/03/13 01:59:09;;;;;;;21.92;5.30;;;9.30;88.40;;;;;;5098964;27;20050;-83
2023/03/13 02:01:35;;;;;;;26.38;5.40;;;9.30;88.60;;;;;;5071049;28;20495;-81
2023/03/13 02:04:01;;;;;;;20.88;4.95;;;9.30;88.50;;;;;;5044060;28;20568;-82
2023/03/13 02:06:30;;;;;;;18.80;5.00;;;9.30;88.60;;;;;;5077224;28;20043;-83
2023/03/13 02:09:00;;;;;;;22.92;6.55;;;9.30;88.60;;;;;;5077017;28;20132;-83
2023/03/13 02:11:41;;;;;;;27.00;6.15;;;9.30;88.70;;;;;;5077295;28;20062;-83
2023/03/13 02:14:06;;;;;;;21.60;6.72;;;9.40;88.80;;;;;;5077104;28;20490;-84
2023/03/13 02:16:34;;;;;;;20.05;5.10;;;9.30;88.80;;;;;;5060629;28;20044;-83
2023/03/13 02:19:05;;;;;;;15.23;4.78;;;9.30;88.90;;;;;;5080299;28;20093;-82
2023/03/13 02:21:50;;;;;;;19.77;5.22;;;9.30;89.00;;;;;;5080415;28;20039;-83
2023/03/13 02:24:44;;;;;;;20.02;5.63;;;9.40;89.10;;;;;;5097487;28;20421;-83
2023/03/13 02:27:10;;;;;;;19.10;5.60;;;9.30;89.20;;;;;;5080065;28;20047;-84
2023/03/13 02:29:36;;;;;;;16.17;4.82;;;9.30;89.10;;;;;;5063346;28;20429;-84
2023/03/13 02:32:02;;;;;;;12.43;4.80;;;9.40;89.30;;;;;;5063372;28;20042;-82
2023/03/13 02:34:33;;;;;;;18.13;4.80;;;9.30;89.40;;;;;;5063380;28;20040;-83
2023/03/13 02:37:00;;;;;;;16.25;4.97;;;9.40;89.50;;;;;;5080081;28;20104;-84
2023/03/13 02:39:28;;;;;;;16.55;4.85;;;9.40;89.50;;;;;;5080740;28;20126;-82
2023/03/13 02:41:54;;;;;;;15.60;5.40;;;9.30;89.60;;;;;;5067279;28;20043;-82
2023/03/13 02:44:20;;;;;;;9.07;3.65;;;9.40;89.70;;;;;;5083583;28;20036;-83
2023/03/13 02:46:51;;;;;;;12.25;4.68;;;9.30;89.70;;;;;;5063342;28;20109;-83
2023/03/13 02:49:29;;;;;;;13.88;4.82;;;9.40;89.90;;;;;;5060653;28;20052;-83
2023/03/13 02:51:59;;;;;;;13.07;4.35;;;9.40;90.00;;;;;;5059869;28;20081;-82
2023/03/13 02:54:32;;;;;;;9.27;3.88;;;9.40;90.00;;;;;;5085966;28;20447;-82
2023/03/13 02:57:01;;;;;;;16.13;4.20;;;9.40;90.00;;;;;;5079596;28;20031;-83
2023/03/13 02:59:28;;;;;;;12.57;3.92;;;9.40;90.00;;;;;;5079647;28;20039;-83
2023/03/13 03:01:54;;;;;;;10.43;3.92;;;9.40;90.10;;;;;;5092023;27;20513;-80
2023/03/13 03:04:22;;;;;;;9.82;3.72;;;9.40;90.10;;;;;;5080986;28;20044;-82
2023/03/13 03:06:48;;;;;;;9.82;3.97;;;9.40;90.10;;;;;;5096493;28;20126;-82
2023/03/13 03:09:16;;;;;;;9.55;4.20;;;9.40;90.20;;;;;;5079455;28;20050;-82
2023/03/13 03:11:42;;;;;;;8.25;4.28;;;9.40;90.20;;;;;;5079571;28;20047;-83
2023/03/13 03:14:09;;;;;;;11.77;4.22;;;9.50;90.20;;;;;;5079362;28;20039;-81
2023/03/13 03:16:34;;;;;;;7.95;3.65;;;9.40;90.30;;;;;;5079418;28;20121;-81
2023/03/13 03:19:00;;;;;;;8.18;3.50;;;9.50;90.30;;;;;;5079224;28;20071;-82
2023/03/13 03:21:26;;;;;;;8.75;3.40;;;9.50;90.40;;;;;;5079664;28;20069;-82
2023/03/13 03:23:52;;;;;;;8.60;3.63;;;9.50;90.40;;;;;;5046337;28;20432;-81
2023/03/13 03:26:17;;;;;;;10.05;4.07;;;9.50;90.50;;;;;;5062534;28;20051;-82
2023/03/13 03:28:43;;;;;;;11.50;4.07;;;9.50;90.50;;;;;;5058912;28;20131;-82
2023/03/13 03:31:12;;;;;;;7.25;3.60;;;9.60;90.60;;;;;;5094228;28;20036;-82
2023/03/13 03:33:38;;;;;;;7.75;4.10;;;9.60;90.60;;;;;;5059065;28;20097;-81
2023/03/13 03:36:07;;;;;;;8.45;4.47;;;9.60;90.60;;;;;;5109025;28;20042;-83
2023/03/13 03:38:33;;;;;;;8.93;4.32;;;9.60;90.70;;;;;;5078860;28;20039;-81
2023/03/13 03:40:59;;;;;;;9.80;4.38;;;9.70;90.70;;;;;;5045778;28;20036;-83
2023/03/13 03:43:25;;;;;;;10.10;4.85;;;9.70;90.70;;;;;;5062580;28;20031;-83
2023/03/13 03:45:50;;;;;;;9.57;4.97;;;9.70;90.80;;;;;;5078897;28;20562;-81
2023/03/13 03:48:16;;;;;;;9.50;4.63;;;9.80;90.80;;;;;;5062458;28;20055;-82
2023/03/13 03:50:42;;;;;;;8.13;4.60;;;9.80;90.80;;;;;;5082097;27;20463;-82
2023/03/13 03:53:08;;;;;;;9.43;4.85;;;9.80;90.90;;;;;;5099248;27;20031;-81
2023/03/13 03:55:35;;;;;;;7.38;4.25;;;9.80;90.90;;;;;;5096744;27;20513;-82
2023/03/13 03:58:01;;;;;;;8.63;4.72;;;9.80;90.90;;;;;;5078738;28;20146;-82
2023/03/13 04:00:27;;;;;;;8.10;4.70;;;9.90;90.90;;;;;;5112494;28;20043;-83
2023/03/13 04:02:54;;;;;;;11.30;5.30;;;9.90;91.00;;;;;;5078849;28;20043;-81
2023/03/13 04:05:21;;;;;;;7.07;4.63;;;9.90;91.00;;;;;;5079077;28;20071;-82
2023/03/13 04:07:47;;;;;;;9.35;4.75;;;9.90;91.00;;;;;;5062098;28;20043;-81
2023/03/13 04:10:13;;;;;;;7.30;5.30;;;9.90;91.00;;;;;;5061881;28;20079;-82
2023/03/13 04:12:39;;;;;;;7.72;5.28;;;10.00;91.00;;;;;;5080849;28;20159;-82
2023/03/13 04:15:05;;;;;;;8.07;5.40;;;10.00;91.00;;;;;;5068581;28;20031;-81
2023/03/13 04:17:32;;;;;;;8.48;5.10;;;10.00;91.10;;;;;;5064999;28;20047;-81
2023/03/13 04:19:58;;;;;;;8.32;5.63;;;10.00;91.10;;;;;;5116019;28;20082;-82
2023/03/13 04:22:24;;;;;;;10.90;6.82;;;10.00;91.10;;;;;;5077275;27;20455;-82
2023/03/13 04:24:50;;;;;;;12.95;6.97;;;10.10;91.10;;;;;;5122523;27;20549;-82
2023/03/13 04:27:15;;;;;;;15.35;7.47;;;10.10;91.10;;;;;;5058561;28;20052;-82
2023/03/13 04:29:41;;;;;;;10.88;7.10;;;10.10;91.10;;;;;;5064899;28;20040;-82
2023/03/13 04:32:07;;;;;;;14.32;8.10;;;10.10;91.10;;;;;;5065356;28;20035;-81
2023/03/13 04:34:33;;;;;;;13.73;8.70;;;10.10;91.10;;;;;;5074783;28;20394;-81
2023/03/13 04:36:58;;;;;;;15.00;9.80;;;10.20;91.20;;;;;;5064991;28;20059;-81
2023/03/13 04:39:24;;;;;;;14.95;8.93;;;10.20;91.20;;;;;;5081614;28;20035;-82
2023/03/13 04:41:54;;;;;;;13.57;9.43;;;10.20;91.20;;;;;;5081368;28;20105;-80
2023/03/13 04:44:21;;;;;;;18.55;10.43;;;10.20;91.30;;;;;;5081274;28;20128;-80
2023/03/13 04:46:47;;;;;;;21.42;10.88;;;10.30;91.30;;;;;;5095544;28;20383;-81
2023/03/13 04:49:14;;;;;;;17.23;9.43;;;10.30;91.30;;;;;;5101807;28;20040;-81
2023/03/13 04:51:41;;;;;;;15.00;10.52;;;10.30;91.30;;;;;;5085153;28;20028;-81
2023/03/13 04:54:07;;;;;;;15.30;9.88;;;10.30;91.30;;;;;;5102026;28;20039;-81
2023/03/13 04:56:34;;;;;;;18.55;10.13;;;10.40;91.60;;;;;;5084802;28;20124;-81
2023/03/13 04:58:59;;;;;;;16.95;10.45;;;10.40;91.40;;;;;;5084860;28;20040;-82
2023/03/13 05:01:25;;;;;;;15.48;10.55;;;10.40;91.40;;;;;;5068125;28;20035;-81
2023/03/13 05:03:51;;;;;;;16.40;9.77;;;10.40;91.40;;;;;;5102059;28;20035;-80
2023/03/13 05:06:16;;;;;;;15.85;10.43;;;10.50;91.50;;;;;;5067948;28;20040;-82
2023/03/13 05:08:42;;;;;;;15.52;9.18;;;10.50;91.50;;;;;;5101493;28;20042;-81
2023/03/13 05:11:08;;;;;;;15.32;9.70;;;10.50;91.50;;;;;;5101585;28;20092;-80
2023/03/13 05:13:33;;;;;;;16.15;10.38;;;10.60;91.60;;;;;;5084506;28;20506;-80
2023/03/13 05:15:59;;;;;;;14.27;8.63;;;10.60;91.60;;;;;;5064556;28;20119;-80
2023/03/13 05:18:25;;;;;;;11.02;8.57;;;10.60;91.50;;;;;;5075638;28;20032;-80
2023/03/13 05:20:51;;;;;;;14.10;9.25;;;10.60;91.60;;;;;;5101334;27;20046;-82
2023/03/13 05:23:17;;;;;;;12.63;8.50;;;10.70;91.60;;;;;;5105078;27;20035;-80
2023/03/13 05:25:43;;;;;;;15.35;8.57;;;10.70;91.60;;;;;;5065379;28;20491;-81
2023/03/13 05:28:08;;;;;;;14.18;8.57;;;10.70;91.60;;;;;;5081193;28;20047;-81
2023/03/13 05:30:34;;;;;;;11.63;7.80;;;10.80;91.60;;;;;;5064695;28;20126;-79
2023/03/13 05:33:00;;;;;;;14.02;8.85;;;10.80;91.60;;;;;;5116052;27;20066;-81
2023/03/13 05:35:25;;;;;;;12.95;8.45;;;10.80;91.70;;;;;;5069029;28;20039;-80
2023/03/13 05:37:51;;;;;;;13.70;8.43;;;10.80;91.70;;;;;;5064513;28;20031;-80
2023/03/13 05:40:17;;;;;;;9.40;7.78;;;10.90;91.70;;;;;;5072718;27;20035;-80
2023/03/13 05:42:43;;;;;;;10.80;7.38;;;10.90;91.70;;;;;;5118391;27;20186;-79
2023/03/13 05:45:09;;;;;;;11.40;8.13;;;10.90;91.70;;;;;;5057190;28;20032;-81
2023/03/13 05:47:37;;;;;;;13.38;7.65;;;11.00;91.70;;;;;;5094521;28;20036;-81
2023/03/13 05:50:04;;;;;;;8.95;7.40;;;11.00;91.70;;;;;;5114313;28;20080;-82
2023/03/13 05:52:31;;;;;;;11.13;6.50;;;11.00;91.70;;;;;;5080904;28;20071;-80
2023/03/13 05:54:57;;;;;;;13.20;7.15;;;11.00;91.80;;;;;;5081097;28;20383;-81
2023/03/13 05:57:23;;;;;;;11.82;6.53;;;11.00;91.70;;;;;;5075844;28;20038;-82
2023/03/13 05:59:48;;;;;;;10.20;6.07;;;11.00;91.80;;;;;;5060617;28;20483;-80
2023/03/13 06:02:14;;;;;;;10.45;6.43;;;11.10;91.80;;;;;;5061858;28;20122;-81
2023/03/13 06:04:40;;;;;;;12.18;6.93;;;11.10;91.80;;;;;;5094182;28;20048;-82
2023/03/13 06:07:06;;;;;;;11.48;6.45;;;11.10;91.80;;;;;;5060853;28;20613;-82
2023/03/13 06:09:31;;;;;;;9.93;6.82;;;11.20;91.80;;;;;;5060690;28;20494;-82
2023/03/13 06:11:57;;;;;;;12.23;7.07;;;11.20;91.80;;;;;;5060794;28;20089;-80
2023/03/13 06:14:23;;;;;;;9.90;5.75;;;11.20;91.80;;;;;;5043822;28;20502;-81
2023/03/13 06:16:49;;;;;;;14.05;5.78;;;11.30;91.80;;;;;;5060494;28;20032;-80
2023/03/13 06:19:14;;;;;;;11.63;6.40;;;11.30;91.80;;;;;;5061006;28;20039;-81
2023/03/13 06:21:40;;;;;;;12.63;6.40;;;11.40;91.80;;;;;;5104530;27;20050;-79
2023/03/13 06:24:06;;;;;;;11.48;6.28;;;11.40;91.80;;;;;;5060655;28;20036;-80
2023/03/13 06:26:32;;;;;;;10.20;6.45;;;11.50;91.80;;;;;;5093595;28;20406;-80
2023/03/13 06:28:57;;;;;;;13.20;6.80;;;11.50;91.80;;;;;;5076983;28;20036;-80
2023/03/13 06:31:23;;;;;;;15.73;6.47;;;11.50;91.70;;;;;;5076841;28;20044;-81
2023/03/13 06:33:55;;;;;;;17.83;7.03;;;11.50;91.70;;;;;;5110722;28;20028;-81
2023/03/13 06:36:22;;;;;;;14.65;6.68;;;11.60;91.70;;;;;;5110743;28;20035;-81
2023/03/13 06:38:48;;;;;;;9.95;5.78;;;11.60;91.60;;;;;;5076838;28;20053;-81
2023/03/13 06:41:14;;;;;;;13.68;5.47;;;11.60;91.60;;;;;;5060130;28;20040;-81
2023/03/13 06:43:40;;;;;;;8.48;5.28;;;11.60;91.50;;;;;;5043513;28;20071;-81
2023/03/13 06:46:06;;;;;;;13.15;5.65;;;11.70;91.50;;;;;;5043551;28;20051;-81
2023/03/13 06:48:32;;;;;;;17.92;6.25;;;11.70;91.50;;;;;;5027058;28;20109;-83
2023/03/13 06:50:58;;;;;;;14.90;4.88;;;11.70;91.40;;;;;;5043335;28;20078;-82
2023/03/13 06:53:24;;;;;;;11.85;5.38;;;11.70;91.30;;;;;;5110356;28;20067;-81
2023/03/13 06:55:50;;;;;;;12.55;5.93;;;11.70;91.20;;;;;;5076682;28;20418;-82
2023/03/13 06:58:17;;;;;;;12.73;4.63;;;11.80;91.20;;;;;;5042961;28;20040;-82
2023/03/13 07:00:43;;;;;;;10.48;4.78;;;11.80;91.10;;;;;;5080152;28;20104;-83
2023/03/13 07:03:10;;;;;;;16.60;5.25;;;11.80;91.00;;;;;;5079763;28;20478;-82
2023/03/13 07:05:36;;;;;;;12.23;5.10;;;11.80;90.90;;;;;;5096801;28;20047;-81
2023/03/13 07:08:02;;;;;;;13.80;4.22;;;11.80;90.90;;;;;;5079503;28;20071;-82
2023/03/13 07:10:29;;;;;;;13.13;5.35;;;11.90;90.80;;;;;;5062935;28;20071;-86
2023/03/13 07:12:55;;;;;;;10.90;4.18;;;11.90;90.70;;;;;;5063095;28;20048;-84
2023/03/13 07:15:20;;;;;;;10.85;4.25;;;11.90;90.60;;;;;;5046196;28;20155;-84
2023/03/13 07:17:46;;;;;;;8.30;4.22;;;12.00;90.50;;;;;;5064105;28;20035;-82
2023/03/13 07:20:12;;;;;;;10.55;4.32;;;12.00;90.40;;;;;;5063114;28;20548;-80
2023/03/13 07:22:38;;;;;;;11.70;4.20;;;12.00;90.60;;;;;;5048527;28;20047;-80
2023/03/13 07:25:04;;;;;;;10.00;4.00;;;12.00;90.30;;;;;;5084340;28;20525;-80
2023/03/13 07:27:31;;;;;;;12.00;4.15;;;12.00;90.20;;;;;;5082586;28;20509;-80
2023/03/13 07:29:57;;;;;;;11.95;3.95;;;12.00;90.10;;;;;;5085942;28;20093;-79
2023/03/13 07:32:22;;;;;;;9.63;4.70;;;12.00;90.00;;;;;;5080289;28;20036;-80
2023/03/13 07:34:48;;;;;;;13.20;4.72;;;11.90;90.00;;;;;;5096099;28;20036;-80
2023/03/13 07:37:15;;;;;;;7.60;3.78;;;11.90;89.90;;;;;;5096145;28;20071;-80
2023/03/13 07:39:42;;;;;;;8.38;3.60;;;11.90;90.00;;;;;;5078916;28;20043;-80
2023/03/13 07:42:11;;;;;;;7.40;3.42;;;11.90;89.90;;;;;;5095712;28;20429;-80
2023/03/13 07:44:37;;;;;;;10.93;4.03;;;11.90;90.00;;;;;;5062531;28;20395;-80
2023/03/13 07:47:03;;;;;;;7.22;3.50;;;11.90;90.00;;;;;;5095546;28;20036;-80
2023/03/13 07:49:29;;;;;;;7.50;3.47;;;11.90;90.00;;;;;;5078807;28;20546;-80
2023/03/13 07:51:54;;;;;;;8.68;3.80;;;11.90;90.00;;;;;;5079189;28;20043;-80
2023/03/13 07:54:20;;;;;;;6.30;3.00;;;11.90;90.00;;;;;;5062434;28;20046;-79
2023/03/13 07:56:46;;;;;;;12.18;4.18;;;11.90;90.00;;;;;;5078840;28;20031;-81
2023/03/13 07:59:11;;;;;;;8.60;3.58;;;11.90;90.00;;;;;;5045469;28;20047;-79
2023/03/13 08:01:37;;;;;;;9.00;4.03;;;11.80;90.10;;;;;;5062704;28;20043;-80
2023/03/13 08:04:04;;;;;;;5.50;3.22;;;11.80;90.10;;;;;;5079082;28;20086;-80
2023/03/13 08:06:31;;;;;;;9.07;3.50;;;11.80;90.20;;;;;;5079053;28;20729;-80
2023/03/13 08:08:58;;;;;;;7.28;3.35;;;11.80;90.20;;;;;;5058250;28;20132;-80
2023/03/13 08:11:26;;;;;;;4.63;3.17;;;11.80;90.30;;;;;;5078732;28;20050;-80
2023/03/13 08:13:53;;;;;;;9.35;3.25;;;11.80;90.30;;;;;;5095520;28;20497;-80
2023/03/13 08:16:21;;;;;;;6.25;3.53;;;11.80;90.40;;;;;;5095636;28;20483;-79
2023/03/13 08:18:49;;;;;;;7.28;3.38;;;11.80;90.40;;;;;;5078911;28;20391;-80
2023/03/13 08:21:17;;;;;;;9.35;3.00;;;11.80;90.50;;;;;;5078439;28;20074;-80
2023/03/13 08:23:43;;;;;;;5.25;2.72;;;11.80;90.50;;;;;;5078494;28;20040;-79
2023/03/13 08:26:17;;;;;;;5.40;2.47;;;11.80;90.50;;;;;;5078396;28;20061;-80
2023/03/13 08:28:45;;;;;;;6.80;2.92;;;11.80;90.50;;;;;;5095242;28;20071;-81
2023/03/13 08:31:11;;;;;;;7.50;3.33;;;11.80;90.50;;;;;;5095344;28;20078;-80
2023/03/13 08:33:37;;;;;;;7.50;3.35;;;11.80;90.60;;;;;;5129570;28;20079;-80
2023/03/13 08:36:22;;;;;;;6.93;3.10;;;11.80;90.60;;;;;;5112194;28;20443;-80
2023/03/13 08:38:48;;;;;;;5.80;3.22;;;11.80;90.60;;;;;;5078863;28;20383;-80
2023/03/13 08:41:16;;;;;;;5.80;3.30;;;11.80;90.60;;;;;;5112304;28;20066;-80
2023/03/13 08:43:43;;;;;;;7.40;3.38;;;11.70;90.60;;;;;;5078610;28;20126;-80
2023/03/13 08:46:08;;;;;;;8.32;3.65;;;11.80;90.60;;;;;;5078320;28;20092;-81
2023/03/13 08:48:34;;;;;;;7.47;3.88;;;11.80;90.70;;;;;;5112625;28;20044;-80
2023/03/13 08:51:12;;;;;;;8.07;3.75;;;11.80;90.80;;;;;;5078351;28;20425;-80
2023/03/13 08:53:40;;;;;;;5.82;3.67;;;11.80;90.90;;;;;;5078249;28;20118;-80
2023/03/13 08:56:07;;;;;;;6.78;2.90;;;11.90;90.90;;;;;;5078217;28;20040;-81
2023/03/13 08:58:33;;;;;;;6.70;3.75;;;11.90;90.90;;;;;;5078421;28;20058;-80
2023/03/13 09:01:08;;;;;;;7.07;3.60;;;11.90;90.90;;;;;;5064573;28;20103;-80
2023/03/13 09:03:34;;;;;;;5.03;2.80;;;12.00;90.90;;;;;;5099142;28;20036;-80
2023/03/13 09:06:00;;;;;;;7.63;2.95;;;12.00;90.90;;;;;;5061982;28;20032;-81
2023/03/13 09:08:27;;;;;;;9.30;3.28;;;12.00;91.00;;;;;;5078567;28;20090;-80
2023/03/13 09:11:01;;;;;;;9.73;3.38;;;12.00;90.70;;;;;;5112339;28;20039;-80
2023/03/13 09:13:28;;;;;;;6.07;3.33;;;12.00;90.70;;;;;;5130512;27;20046;-80
2023/03/13 09:15:59;;;;;;;6.45;3.03;;;12.10;90.60;;;;;;5098092;28;20119;-80
2023/03/13 09:18:25;;;;;;;11.35;3.17;;;12.10;90.50;;;;;;5081930;28;20046;-80
2023/03/13 09:20:51;;;;;;;9.60;3.28;;;12.10;90.50;;;;;;5081778;28;20035;-81
2023/03/13 09:23:18;;;;;;;6.80;2.90;;;12.10;90.40;;;;;;5115649;28;20035;-80
2023/03/13 09:25:44;;;;;;;8.27;2.95;;;12.10;90.30;;;;;;5081525;28;20122;-81
2023/03/13 09:28:10;;;;;;;6.68;3.25;;;12.10;90.30;;;;;;5098497;28;20047;-80
2023/03/13 09:30:36;;;;;;;7.13;3.22;;;12.10;90.30;;;;;;5103687;28;20044;-79
2023/03/13 09:33:02;;;;;;;7.40;3.40;;;12.10;90.20;;;;;;5078334;28;20040;-80
2023/03/13 09:35:28;;;;;;;6.80;3.25;;;12.10;90.20;;;;;;5077930;28;20040;-80
2023/03/13 09:37:53;;;;;;;10.13;2.90;;;12.10;90.20;;;;;;5094775;28;20047;-81
2023/03/13 09:40:22;;;;;;;13.07;3.03;;;12.10;90.20;;;;;;5083334;28;20035;-80
2023/03/13 09:42:57;;;;;;;10.55;2.92;;;12.10;90.20;;;;;;5098237;28;20044;-81
2023/03/13 09:45:40;;;;;;;4.88;2.55;;;12.20;90.10;;;;;;5081552;28;20390;-80
2023/03/13 09:48:16;;;;;;;9.43;3.17;;;12.20;90.00;;;;;;5081276;28;20040;-80
2023/03/13 09:51:06;;;;;;;8.48;2.70;;;12.20;90.10;;;;;;5098179;28;20071;-80
2023/03/13 09:53:45;;;;;;;6.90;2.50;;;12.30;90.00;;;;;;5081025;28;20051;-80
2023/03/13 09:56:21;;;;;;;9.90;3.08;;;12.40;89.60;;;;;;5080923;28;20491;-80
2023/03/13 09:59:04;;;;;;;7.20;2.25;;;12.40;88.80;;;;;;5080968;28;20039;-81
2023/03/13 10:01:32;;;;;;;8.20;2.45;;;12.50;88.30;;;;;;5097967;28;20070;-81
2023/03/13 10:04:18;;;;;;;7.28;2.13;;;12.60;88.20;;;;;;5080732;28;20043;-79
2023/03/13 10:06:45;;;;;;;9.70;2.80;;;12.60;87.60;;;;;;5080979;28;20372;-80
2023/03/13 10:09:21;;;;;;;9.90;2.22;;;12.70;87.40;;;;;;5080572;28;20044;-80
2023/03/13 10:12:10;;;;;;;11.13;2.80;;;12.70;86.50;;;;;;5080628;28;20614;-80
2023/03/13 10:15:08;;;;;;;11.32;2.60;;;12.80;85.60;;;;;;5097217;28;20040;-80
2023/03/13 10:17:40;;;;;;;10.60;2.70;;;12.80;85.30;;;;;;5076461;28;20441;-80
2023/03/13 10:20:28;;;;;;;9.93;2.58;;;12.80;85.00;;;;;;5114034;28;20177;-80
2023/03/13 10:23:03;;;;;;;8.18;2.80;;;12.90;84.50;;;;;;5097312;28;20039;-81
2023/03/13 10:25:35;;;;;;;10.40;2.47;;;12.90;83.70;;;;;;5080404;28;20168;-80
2023/03/13 10:28:02;;;;;;;12.77;2.58;;;12.90;83.40;;;;;;5080627;28;20055;-79
2023/03/13 10:30:38;;;;;;;9.93;2.45;;;13.00;83.00;;;;;;5080196;28;20035;-79
2023/03/13 10:33:07;;;;;;;11.73;2.85;;;13.00;81.30;;;;;;5097093;28;20044;-81
2023/03/13 10:35:37;;;;;;;14.05;3.00;;;13.00;80.80;;;;;;5097055;28;20042;-80
2023/03/13 10:38:19;;;;;;;9.60;2.65;;;13.10;80.40;;;;;;5097311;28;20404;-80
2023/03/13 10:41:17;;;;;;;14.23;2.88;;;13.20;79.90;;;;;;5080044;28;20501;-81
2023/03/13 10:43:52;;;;;;;10.50;3.08;;;13.20;79.20;;;;;;5096999;28;20046;-80
2023/03/13 10:46:29;;;;;;;9.82;2.88;;;13.20;79.30;;;;;;5096762;28;20050;-81
2023/03/13 10:48:58;;;;;;;12.52;3.03;;;13.20;79.40;;;;;;5079850;28;20047;-81
2023/03/13 10:51:35;;;;;;;10.82;2.83;;;13.20;79.60;;;;;;5097378;28;20361;-81
2023/03/13 10:54:11;;;;;;;10.82;3.10;;;13.30;79.50;;;;;;5096963;28;20086;-81
2023/03/13 10:56:37;;;;;;;9.98;3.15;;;13.40;79.90;;;;;;5079897;28;20390;-81
2023/03/13 10:59:15;;;;;;;8.20;2.25;;;13.40;80.10;;;;;;5079556;28;20043;-81
2023/03/13 11:01:43;;;;;;;5.97;2.42;;;13.50;80.20;;;;;;5079132;28;20039;-80
2023/03/13 11:04:33;;;;;;;9.18;2.90;;;13.50;80.20;;;;;;5112876;28;20540;-81
2023/03/13 11:07:31;;;;;;;10.00;2.50;;;13.60;80.10;;;;;;5079194;28;20048;-80
2023/03/13 11:10:03;;;;;;;8.32;1.92;;;13.70;80.10;;;;;;5100588;28;20055;-80
2023/03/13 11:12:33;;;;;;;5.72;1.90;;;13.70;80.40;;;;;;5079410;28;20491;-81
2023/03/13 11:15:00;;;;;;;8.98;1.98;;;13.80;80.60;;;;;;5079651;28;20039;-81
2023/03/13 11:17:38;;;;;;;5.13;1.60;;;13.90;80.50;;;;;;5079389;28;20039;-81
2023/03/13 11:20:38;;;;;;;6.28;2.08;;;14.00;80.20;;;;;;5079375;28;20071;-81
2023/03/13 11:23:21;;;;;;;8.45;2.58;;;14.10;79.80;;;;;;5035963;28;20047;-81
2023/03/13 11:26:11;;;;;;;7.03;2.30;;;14.20;79.50;;;;;;5079058;28;20079;-81
2023/03/13 11:28:57;;;;;;;7.53;2.03;;;14.20;79.50;;;;;;5079067;28;20058;-80
2023/03/13 11:31:38;;;;;;;7.28;1.52;;;14.30;79.30;;;;;;5079305;28;20428;-81
2023/03/13 11:34:31;;;;;;;5.80;1.63;;;14.40;79.10;;;;;;5079413;28;20054;-80
2023/03/13 11:37:15;;;;;;;4.60;1.35;;;14.40;77.90;;;;;;5078849;28;20039;-80
2023/03/13 11:40:27;;;;;;;5.22;1.63;;;14.50;77.90;;;;;;5059138;28;20513;-81
2023/03/13 11:43:24;;;;;;;5.70;1.70;;;14.60;77.30;;;;;;5092351;28;20090;-81
2023/03/13 11:45:50;;;;;;;7.28;1.65;;;14.60;77.30;;;;;;5105224;28;20051;-80
2023/03/13 11:48:40;;;;;;;5.05;1.77;;;14.60;77.50;;;;;;5078986;28;20043;-81
2023/03/13 11:51:36;;;;;;;5.07;1.55;;;14.70;76.30;;;;;;5129696;27;20051;-80
2023/03/13 11:54:36;;;;;;;6.00;1.50;;;14.80;74.50;;;;;;5078845;28;20039;-80
2023/03/13 11:57:13;;;;;;;7.05;1.85;;;14.80;73.80;;;;;;5078869;28;20048;-81
2023/03/13 11:59:53;;;;;;;6.78;1.40;;;14.80;73.60;;;;;;5078765;28;20097;-81
2023/03/13 12:02:42;;;;;;;6.10;1.73;;;14.80;73.30;;;;;;5078654;28;20530;-81
2023/03/13 12:05:12;;;;;;;7.75;1.65;;;14.90;72.90;;;;;;5067994;28;20130;-81
2023/03/13 12:07:45;;;;;;;6.88;2.28;;;14.90;72.40;;;;;;5092169;28;20127;-81
2023/03/13 12:10:15;;;;;;;6.28;1.40;;;14.90;72.60;;;;;;5076846;28;20032;-80
2023/03/13 12:12:51;;;;;;;7.60;2.03;;;14.90;72.60;;;;;;5094578;28;20036;-80
2023/03/13 12:15:38;;;;;;;8.57;2.10;;;14.90;72.30;;;;;;5095698;28;20039;-81
2023/03/13 12:18:33;;;;;;;6.15;1.50;;;14.90;72.10;;;;;;5074948;28;20032;-81
2023/03/13 12:21:11;;;;;;;;;;;14.90;71.70;;;;;;5079253;28;20044;-81
2023/03/13 12:23:48;;;;;;;5.72;1.52;;;14.90;72.30;;;;;;5095573;28;20575;-80
2023/03/13 12:26:19;;;;;;;12.82;3.33;;;14.90;72.30;;;;;;5129549;28;20065;-80
2023/03/13 12:28:51;;;;;;;10.02;2.70;;;14.90;71.10;;;;;;5078694;28;20077;-80
2023/03/13 12:31:21;;;;;;;9.88;2.47;;;14.90;71.20;;;;;;5095404;28;20036;-81
2023/03/13 12:34:08;;;;;;;8.95;2.92;;;14.90;70.50;;;;;;5079690;28;20055;-80
2023/03/13 12:36:44;;;;;;;7.97;2.20;;;14.90;70.30;;;;;;5082887;28;20433;-80
2023/03/13 12:39:25;;;;;;;8.95;2.42;;;14.90;69.90;;;;;;5099472;28;20050;-82
2023/03/13 12:42:00;;;;;;;8.68;2.63;;;14.90;69.40;;;;;;5082440;28;20039;-81
2023/03/13 12:44:26;;;;;;;11.30;4.22;;;14.80;69.30;;;;;;5082586;28;20074;-82
2023/03/13 12:47:07;;;;;;;11.48;3.17;;;14.80;69.00;;;;;;5116146;28;20128;-81
2023/03/13 12:49:44;;;;;;;14.73;3.63;;;14.80;68.10;;;;;;5099643;28;20834;-81
2023/03/13 12:52:36;;;;;;;8.50;3.47;;;14.80;69.00;;;;;;5082217;28;20053;-79
2023/03/13 12:55:36;;;;;;;12.13;3.28;;;14.80;67.50;;;;;;5082227;28;20067;-82
2023/03/13 12:58:36;;;;;;;14.57;3.00;;;14.80;66.50;;;;;;5081867;28;20035;-81
2023/03/13 13:01:04;;;;;;;15.35;2.90;;;14.90;66.80;;;;;;5062076;28;20142;-81